Winnipeg James Armstrong Richardson International Airport
CYWG : now visible

Airfield :











YOU CAN JOIN US ON...

 
LOGIN :

Register | Disclaimer

   EN    FR    IT 

 









Legend :    VFR   Marginal VFR   IFR   Intensive IFR   Very Intensive IFR
Visi :
Ceiling :
>= 8 km
>= 3000ft
5 to 8 km
1000 to 3000 ft
1500m to 5 km
500 to 1000 ft
800 to 1500m
200 to 500 ft
< 800m
< 200 ft
Symbols :   Thunderstorms  Fog  Heavy snow  Heavy precipitations  Wind > 20 kt






- Airport Elevation : 783 ft
- IATA code : YWG


CYWG - Winnipeg James Armstrong Richardson International

CURRENT METAR :
  • 081000Z 18014KT 10SM SKC M18/M21 A3015 RMK DIST BR W-E SLP241

EXPIRED METARs :
  • 080900Z 19015KT 15SM SKC M18/M21 A3015 RMK SLP241
  • 080800Z 19016KT 15SM DRSN FEW200 M18/M21 A3015 RMK CI1 CI TR SLP238

TAF TAF CYWG
Valid from the 08 at 06:00 until the 09 at 06:00 UTC


080540Z 0806/0906 18015G25KT P6SM SKC
BECMG 0813/0815 18008KT
BECMG 0819/0821 12008KT
FM082100 12008KT P6SM FEW060 RMK NXT FCST BY 081200Z
CZWG FIR / North America



MET'MAP, your aeronautical weather chart ! - Copyright ORBIFLY December 2007 - Disclaimer

ORBIFLY MET'MAP TEAM :

Programming & Development : Alexandra Zaïnal
Original concept : Baudouin d'Aumeries
Technical & hardware support : Manuel Goepfert
Assistance : Marc-Olivier Méhu




SOURCES & CREDITS :

   NOAA       Earth
Advisory